createdAt,value
2023-03-22T00:03:43.863Z,7.83
2023-03-22T00:08:50.734Z,7.48
2023-03-22T00:13:53.748Z,7.27
2023-03-22T00:18:55.705Z,7.12
2023-03-22T00:23:57.523Z,7.01
2023-03-22T00:28:59.393Z,6.89
2023-03-22T00:34:01.196Z,6.71
2023-03-22T00:39:03.078Z,6.44
2023-03-22T00:44:04.993Z,6.26
2023-03-22T00:49:06.655Z,6.22
2023-03-22T00:54:08.333Z,6.29
2023-03-22T00:59:10.132Z,6.42
2023-03-22T01:04:17.928Z,6.53
2023-03-22T01:09:23.897Z,6.33
2023-03-22T01:14:26.244Z,6.16
2023-03-22T01:19:28.133Z,5.95
2023-03-22T01:24:29.815Z,5.89
2023-03-22T01:29:31.658Z,5.88
2023-03-22T01:34:33.416Z,5.81
2023-03-22T01:39:36.199Z,5.65
2023-03-22T01:44:44.804Z,5.46
2023-03-22T01:49:49.141Z,5.43
2023-03-22T01:54:53.790Z,5.27
2023-03-22T02:00:15.801Z,5.11
2023-03-22T02:05:44.125Z,5.04
2023-03-22T02:10:47.166Z,4.84
2023-03-22T02:16:17.621Z,4.64
2023-03-22T02:21:42.192Z,4.63
2023-03-22T02:27:25.506Z,4.55
2023-03-22T02:32:48.319Z,4.24
2023-03-22T02:38:02.340Z,4.04
2023-03-22T02:43:38.549Z,3.93
2023-03-22T02:48:48.043Z,4.12
2023-03-22T02:53:58.990Z,3.97
2023-03-22T02:59:04.985Z,3.81
2023-03-22T03:04:12.788Z,3.75
2023-03-22T03:09:18.082Z,3.75
2023-03-22T03:14:26.038Z,3.59
2023-03-22T03:19:40.586Z,3.76
2023-03-22T03:24:56.153Z,3.95
2023-03-22T03:30:10.162Z,3.99
2023-03-22T03:35:23.250Z,4.04
2023-03-22T03:40:31.214Z,4.14
2023-03-22T03:45:36.188Z,4.23
2023-03-22T03:50:38.378Z,4.29
2023-03-22T03:55:40.894Z,4.37
2023-03-22T04:00:43.564Z,4.25
2023-03-22T04:06:06.409Z,4.02
2023-03-22T04:11:12.189Z,3.96
2023-03-22T04:16:15.421Z,4.00
2023-03-22T04:21:17.613Z,3.98
2023-03-22T04:26:26.792Z,4.02
2023-03-22T04:31:50.840Z,4.09
2023-03-22T04:36:56.631Z,4.02
2023-03-22T04:42:11.289Z,3.97
2023-03-22T04:47:13.960Z,4.13
2023-03-22T04:52:16.075Z,4.27
2023-03-22T04:57:25.048Z,4.34
2023-03-22T05:02:26.997Z,4.37
2023-03-22T05:07:29.811Z,4.48
2023-03-22T05:12:34.001Z,4.56
2023-03-22T05:17:52.661Z,4.61
2023-03-22T05:22:56.914Z,4.60
2023-03-22T05:28:01.814Z,4.51
2023-03-22T05:33:16.986Z,4.52
2023-03-22T05:38:22.821Z,4.62
2023-03-22T05:43:27.004Z,4.68
2023-03-22T05:48:29.054Z,4.72
2023-03-22T05:53:31.877Z,4.75
2023-03-22T05:58:59.464Z,4.82
2023-03-22T06:04:01.430Z,4.95
2023-03-22T06:09:17.262Z,5.23
2023-03-22T06:14:22.617Z,5.40
2023-03-22T06:19:47.560Z,5.57
2023-03-22T06:24:50.881Z,5.66
2023-03-22T06:30:01.605Z,5.81
2023-03-22T06:35:07.003Z,6.09
2023-03-22T06:40:10.017Z,6.04
2023-03-22T06:45:14.669Z,6.06
2023-03-22T06:50:18.711Z,6.03
2023-03-22T06:55:43.189Z,6.00
2023-03-22T07:00:49.090Z,6.09
2023-03-22T07:05:53.012Z,6.12
2023-03-22T07:10:54.874Z,6.28
2023-03-22T07:16:01.171Z,6.52
2023-03-22T07:21:26.052Z,6.89
2023-03-22T07:26:32.629Z,7.36
2023-03-22T07:31:36.604Z,7.92
2023-03-22T07:36:45.339Z,8.77
2023-03-22T07:41:47.820Z,9.27
2023-03-22T07:47:09.870Z,9.59
2023-03-22T07:52:19.155Z,9.90
2023-03-22T07:57:21.903Z,10.29
2023-03-22T08:02:30.257Z,10.71
2023-03-22T08:07:34.489Z,11.04
2023-03-22T08:12:36.483Z,11.35
2023-03-22T08:17:49.843Z,11.64
2023-03-22T08:23:01.025Z,11.48
2023-03-22T08:28:03.407Z,11.42
2023-03-22T08:33:06.492Z,11.72
2023-03-22T08:38:09.014Z,11.83
2023-03-22T08:43:19.791Z,12.08
2023-03-22T08:48:21.943Z,12.40
2023-03-22T08:53:50.059Z,13.03
2023-03-22T08:59:11.777Z,13.48
2023-03-22T09:04:24.708Z,13.34
2023-03-22T09:09:26.630Z,13.23
2023-03-22T09:14:29.586Z,13.51
2023-03-22T09:19:32.188Z,13.58
2023-03-22T09:24:33.925Z,13.74
2023-03-22T09:29:37.889Z,13.81
2023-03-22T09:34:44.065Z,14.00
2023-03-22T09:39:46.461Z,14.44
2023-03-22T09:44:51.632Z,14.27
2023-03-22T09:50:16.002Z,14.06
2023-03-22T09:55:21.520Z,14.08
2023-03-22T10:00:38.642Z,14.21
2023-03-22T10:05:51.340Z,14.26
2023-03-22T10:10:53.260Z,14.88
2023-03-22T10:16:02.522Z,15.05
2023-03-22T10:21:06.960Z,14.41
2023-03-22T10:26:22.789Z,14.18
2023-03-22T10:31:26.704Z,14.16
2023-03-22T10:36:34.718Z,14.26
2023-03-22T10:41:36.822Z,14.24
2023-03-22T10:46:41.062Z,14.71
2023-03-22T10:51:49.215Z,14.94
2023-03-22T10:56:50.984Z,14.96
2023-03-22T11:01:52.795Z,14.88
2023-03-22T11:06:56.172Z,15.37
2023-03-22T11:12:02.433Z,15.48
2023-03-22T11:17:07.060Z,16.40
2023-03-22T11:22:24.950Z,16.73
2023-03-22T11:27:33.053Z,17.36
2023-03-22T11:32:39.535Z,17.14
2023-03-22T11:37:49.398Z,17.24
2023-03-22T11:42:57.078Z,18.46
2023-03-22T11:48:07.038Z,18.08
2023-03-22T11:53:15.518Z,18.91
2023-03-22T11:58:44.628Z,19.13
2023-03-22T12:03:54.004Z,19.74
2023-03-22T12:09:00.781Z,20.04
2023-03-22T12:14:09.498Z,18.33
2023-03-22T12:19:28.228Z,17.25
2023-03-22T12:24:32.965Z,17.45
2023-03-22T12:29:36.441Z,17.04
2023-03-22T12:34:44.889Z,16.95
2023-03-22T12:39:55.831Z,16.43
2023-03-22T12:45:05.832Z,16.99
2023-03-22T12:50:13.089Z,16.67
2023-03-22T12:55:30.736Z,16.78
2023-03-22T13:00:43.104Z,18.69
2023-03-22T13:05:47.182Z,19.89
2023-03-22T13:10:50.521Z,20.72
2023-03-22T13:16:09.398Z,20.25
2023-03-22T13:21:26.624Z,18.93
2023-03-22T13:26:47.285Z,18.52
2023-03-22T13:31:52.152Z,17.86
2023-03-22T13:36:56.427Z,17.25
2023-03-22T13:42:38.075Z,16.59
2023-03-22T13:47:47.255Z,17.36
2023-03-22T13:53:06.582Z,18.62
2023-03-22T13:58:45.673Z,17.53
2023-03-22T14:03:50.527Z,17.62
2023-03-22T14:08:57.418Z,20.15
2023-03-22T14:14:09.969Z,19.29
2023-03-22T14:19:18.527Z,19.91
